Forside
METAR-TAF:

METAR-TAF

Lufthavne :

Libreville, Gabon

Breddekreds: 00-27N, længdekreds: 009-25E, højde: 12 m

Aktuelle vejr

Denne rapport blev lavet for 39 minutter siden, kl. 18:30 UTC
Vind 7 kt fra sydvest
Temperatur 26°C
Fugtighed 79%
Tryk 1014 hPa
Sigt 10 km eller mere
Nogle få skyer i en højde af 1300 ft

METAR: FOOL 221830Z 23007KT 9999 FEW013 26/22 Q1014 NOSIG

Tid: 20:09 (19:09 UTC)

Vejrudsigter

Denne rapport blev lavet for 2 timer og 9 minutter siden, kl. 17:00 UTC
Foreløbig gælder fra 22 på 18 UTC til 23 på 24 UTC
Vind 7 kt fra vestsydvest
Sigt 10 km eller mere
Spredte skyer i en højde af 1000 ft

TAF: FOOL 221700Z 2218/2324 24007KT 9999 SCT010

Vejrobservationer og prognoser fra mere end 4000 lufthavne (METAR og TAF).

De gule og røde prikker repræsenterer de meteorologiske stationer.

Flyt musen over at se navnet på stationen.

Så klik over at se vejr observationer og prognoser.

At skifte det kort: Klik på de grønne knapper med et sort kors for at zoome ind; på den grønne knap med en bindestreg for at zoome ud; eller på de grønne pile for tilstødende kort.


METAR-TAF: